sensor_id;sensor_type;location;lat;lon;timestamp;temperature;humidity
19920;DHT22;10122;50.074;19.920;2023-02-26T00:00:05;4.40;99.90
19920;DHT22;10122;50.074;19.920;2023-02-26T00:02:34;4.40;99.90
19920;DHT22;10122;50.074;19.920;2023-02-26T00:05:02;4.30;99.90
19920;DHT22;10122;50.074;19.920;2023-02-26T00:07:27;4.30;99.90
19920;DHT22;10122;50.074;19.920;2023-02-26T00:09:54;4.30;99.90
19920;DHT22;10122;50.074;19.920;2023-02-26T00:12:20;4.30;99.90
19920;DHT22;10122;50.074;19.920;2023-02-26T00:14:46;4.40;99.90
19920;DHT22;10122;50.074;19.920;2023-02-26T00:19:59;4.30;99.90
19920;DHT22;10122;50.074;19.920;2023-02-26T00:22:25;4.30;99.90
19920;DHT22;10122;50.074;19.920;2023-02-26T00:24:51;4.40;99.90
19920;DHT22;10122;50.074;19.920;2023-02-26T00:27:17;4.40;99.90
19920;DHT22;10122;50.074;19.920;2023-02-26T00:29:43;4.40;99.90
19920;DHT22;10122;50.074;19.920;2023-02-26T00:32:10;4.40;99.90
19920;DHT22;10122;50.074;19.920;2023-02-26T00:34:37;4.30;99.90
19920;DHT22;10122;50.074;19.920;2023-02-26T00:42:07;4.40;99.90
19920;DHT22;10122;50.074;19.920;2023-02-26T00:44:33;4.30;99.90
19920;DHT22;10122;50.074;19.920;2023-02-26T00:52:46;4.40;99.90
19920;DHT22;10122;50.074;19.920;2023-02-26T00:55:15;4.30;99.90
19920;DHT22;10122;50.074;19.920;2023-02-26T00:57:40;4.30;99.90
19920;DHT22;10122;50.074;19.920;2023-02-26T01:00:07;4.30;99.90
19920;DHT22;10122;50.074;19.920;2023-02-26T01:02:37;4.30;99.90
19920;DHT22;10122;50.074;19.920;2023-02-26T01:05:04;4.30;99.90
19920;DHT22;10122;50.074;19.920;2023-02-26T01:07:39;4.20;99.90
19920;DHT22;10122;50.074;19.920;2023-02-26T01:10:05;4.20;99.90
19920;DHT22;10122;50.074;19.920;2023-02-26T01:12:31;4.20;99.90
19920;DHT22;10122;50.074;19.920;2023-02-26T01:14:57;4.30;99.90
19920;DHT22;10122;50.074;19.920;2023-02-26T01:17:35;4.40;99.90
19920;DHT22;10122;50.074;19.920;2023-02-26T01:20:25;4.40;99.90
19920;DHT22;10122;50.074;19.920;2023-02-26T01:22:56;4.40;99.90
19920;DHT22;10122;50.074;19.920;2023-02-26T01:25:26;4.40;99.90
19920;DHT22;10122;50.074;19.920;2023-02-26T01:27:54;4.40;99.90
19920;DHT22;10122;50.074;19.920;2023-02-26T01:30:22;4.40;99.90
19920;DHT22;10122;50.074;19.920;2023-02-26T01:33:06;4.30;99.90
19920;DHT22;10122;50.074;19.920;2023-02-26T01:35:55;4.30;99.90
19920;DHT22;10122;50.074;19.920;2023-02-26T01:41:29;4.00;99.90
19920;DHT22;10122;50.074;19.920;2023-02-26T01:44:31;3.90;99.90
19920;DHT22;10122;50.074;19.920;2023-02-26T01:49:34;3.90;99.90
19920;DHT22;10122;50.074;19.920;2023-02-26T01:53:13;3.80;99.90
19920;DHT22;10122;50.074;19.920;2023-02-26T01:54:49;3.80;99.90
19920;DHT22;10122;50.074;19.920;2023-02-26T01:57:16;3.80;99.90
19920;DHT22;10122;50.074;19.920;2023-02-26T01:59:46;3.90;99.90
19920;DHT22;10122;50.074;19.920;2023-02-26T02:02:16;4.00;99.90
19920;DHT22;10122;50.074;19.920;2023-02-26T02:04:43;4.10;99.90
19920;DHT22;10122;50.074;19.920;2023-02-26T02:07:10;4.10;99.90
19920;DHT22;10122;50.074;19.920;2023-02-26T02:09:37;4.00;99.90
19920;DHT22;10122;50.074;19.920;2023-02-26T02:12:30;4.00;99.90
19920;DHT22;10122;50.074;19.920;2023-02-26T02:17:56;4.00;99.90
19920;DHT22;10122;50.074;19.920;2023-02-26T02:29:20;3.90;99.90
19920;DHT22;10122;50.074;19.920;2023-02-26T02:32:09;3.80;99.90
19920;DHT22;10122;50.074;19.920;2023-02-26T02:34:40;3.80;99.90
19920;DHT22;10122;50.074;19.920;2023-02-26T02:37:24;3.80;99.90
19920;DHT22;10122;50.074;19.920;2023-02-26T02:39:56;3.80;99.90
19920;DHT22;10122;50.074;19.920;2023-02-26T02:43:36;3.70;99.90
19920;DHT22;10122;50.074;19.920;2023-02-26T02:45:39;3.80;99.90
19920;DHT22;10122;50.074;19.920;2023-02-26T02:48:23;3.90;99.90
19920;DHT22;10122;50.074;19.920;2023-02-26T02:50:58;3.90;99.90
19920;DHT22;10122;50.074;19.920;2023-02-26T02:53:42;3.90;99.90
19920;DHT22;10122;50.074;19.920;2023-02-26T02:56:17;3.80;99.90
19920;DHT22;10122;50.074;19.920;2023-02-26T02:58:50;3.80;99.90
19920;DHT22;10122;50.074;19.920;2023-02-26T03:01:18;3.90;99.90
19920;DHT22;10122;50.074;19.920;2023-02-26T03:04:00;3.90;99.90
19920;DHT22;10122;50.074;19.920;2023-02-26T03:06:26;3.90;99.90
19920;DHT22;10122;50.074;19.920;2023-02-26T03:08:52;3.80;99.90
19920;DHT22;10122;50.074;19.920;2023-02-26T03:11:18;3.90;99.90
19920;DHT22;10122;50.074;19.920;2023-02-26T03:13:45;3.90;99.90
19920;DHT22;10122;50.074;19.920;2023-02-26T03:16:28;3.90;99.90
19920;DHT22;10122;50.074;19.920;2023-02-26T03:19:35;3.90;99.90
19920;DHT22;10122;50.074;19.920;2023-02-26T03:22:12;3.90;99.90
19920;DHT22;10122;50.074;19.920;2023-02-26T03:24:50;4.00;99.90
19920;DHT22;10122;50.074;19.920;2023-02-26T03:27:27;4.10;99.90
19920;DHT22;10122;50.074;19.920;2023-02-26T03:38:07;3.90;99.90
19920;DHT22;10122;50.074;19.920;2023-02-26T03:40:48;3.90;99.90
19920;DHT22;10122;50.074;19.920;2023-02-26T03:46:06;3.70;99.90
19920;DHT22;10122;50.074;19.920;2023-02-26T03:48:34;3.80;99.90
19920;DHT22;10122;50.074;19.920;2023-02-26T03:51:06;3.80;99.90
19920;DHT22;10122;50.074;19.920;2023-02-26T03:53:40;3.90;99.90
19920;DHT22;10122;50.074;19.920;2023-02-26T03:56:32;3.90;99.90
19920;DHT22;10122;50.074;19.920;2023-02-26T03:58:58;3.70;99.90
19920;DHT22;10122;50.074;19.920;2023-02-26T04:01:34;3.70;99.90
19920;DHT22;10122;50.074;19.920;2023-02-26T04:04:20;3.80;99.90
19920;DHT22;10122;50.074;19.920;2023-02-26T04:06:47;3.80;99.90
19920;DHT22;10122;50.074;19.920;2023-02-26T04:09:14;3.70;99.90
19920;DHT22;10122;50.074;19.920;2023-02-26T04:11:41;3.70;99.90
19920;DHT22;10122;50.074;19.920;2023-02-26T04:14:07;3.80;99.90
19920;DHT22;10122;50.074;19.920;2023-02-26T04:16:33;3.80;99.90
19920;DHT22;10122;50.074;19.920;2023-02-26T04:18:59;3.80;99.90
19920;DHT22;10122;50.074;19.920;2023-02-26T04:21:25;3.80;99.90
19920;DHT22;10122;50.074;19.920;2023-02-26T04:23:50;3.80;99.90
19920;DHT22;10122;50.074;19.920;2023-02-26T04:26:16;3.80;99.90
19920;DHT22;10122;50.074;19.920;2023-02-26T04:28:41;3.70;99.90
19920;DHT22;10122;50.074;19.920;2023-02-26T04:31:08;3.70;99.90
19920;DHT22;10122;50.074;19.920;2023-02-26T04:33:35;3.70;99.90
19920;DHT22;10122;50.074;19.920;2023-02-26T04:36:01;3.70;99.90
19920;DHT22;10122;50.074;19.920;2023-02-26T04:38:26;3.60;99.90
19920;DHT22;10122;50.074;19.920;2023-02-26T04:40:52;3.60;99.90
19920;DHT22;10122;50.074;19.920;2023-02-26T04:43:18;3.60;99.90
19920;DHT22;10122;50.074;19.920;2023-02-26T04:45:47;3.50;99.90
19920;DHT22;10122;50.074;19.920;2023-02-26T04:48:14;3.50;99.90
19920;DHT22;10122;50.074;19.920;2023-02-26T04:50:39;3.50;99.90
19920;DHT22;10122;50.074;19.920;2023-02-26T04:53:05;3.50;99.90
19920;DHT22;10122;50.074;19.920;2023-02-26T04:55:31;3.50;99.90
19920;DHT22;10122;50.074;19.920;2023-02-26T04:57:57;3.40;99.90
19920;DHT22;10122;50.074;19.920;2023-02-26T05:00:23;3.40;99.90
19920;DHT22;10122;50.074;19.920;2023-02-26T05:02:50;3.50;99.90
19920;DHT22;10122;50.074;19.920;2023-02-26T05:05:16;3.60;99.90
19920;DHT22;10122;50.074;19.920;2023-02-26T05:07:42;3.70;99.90
19920;DHT22;10122;50.074;19.920;2023-02-26T05:10:08;3.70;99.90
19920;DHT22;10122;50.074;19.920;2023-02-26T05:12:34;3.60;99.90
19920;DHT22;10122;50.074;19.920;2023-02-26T05:15:00;3.70;99.90
19920;DHT22;10122;50.074;19.920;2023-02-26T05:17:25;3.60;99.90
19920;DHT22;10122;50.074;19.920;2023-02-26T05:19:51;3.60;99.90
19920;DHT22;10122;50.074;19.920;2023-02-26T05:22:17;3.60;99.90
19920;DHT22;10122;50.074;19.920;2023-02-26T05:24:43;3.60;99.90
19920;DHT22;10122;50.074;19.920;2023-02-26T05:27:09;3.60;99.90
19920;DHT22;10122;50.074;19.920;2023-02-26T05:29:34;3.60;99.90
19920;DHT22;10122;50.074;19.920;2023-02-26T05:32:02;3.60;99.90
19920;DHT22;10122;50.074;19.920;2023-02-26T05:34:28;3.50;99.90
19920;DHT22;10122;50.074;19.920;2023-02-26T05:36:53;3.50;99.90
19920;DHT22;10122;50.074;19.920;2023-02-26T05:39:19;3.50;99.90
19920;DHT22;10122;50.074;19.920;2023-02-26T05:41:45;3.50;99.90
19920;DHT22;10122;50.074;19.920;2023-02-26T05:44:11;3.40;99.90
19920;DHT22;10122;50.074;19.920;2023-02-26T05:46:37;3.50;99.90
19920;DHT22;10122;50.074;19.920;2023-02-26T05:49:03;3.40;99.90
19920;DHT22;10122;50.074;19.920;2023-02-26T05:51:28;3.20;99.90
19920;DHT22;10122;50.074;19.920;2023-02-26T05:53:54;3.20;99.90
19920;DHT22;10122;50.074;19.920;2023-02-26T05:56:20;3.30;99.90
19920;DHT22;10122;50.074;19.920;2023-02-26T05:58:46;3.30;99.90
19920;DHT22;10122;50.074;19.920;2023-02-26T06:01:12;3.30;99.90
19920;DHT22;10122;50.074;19.920;2023-02-26T06:03:37;3.30;99.90
19920;DHT22;10122;50.074;19.920;2023-02-26T06:06:11;3.30;99.90
19920;DHT22;10122;50.074;19.920;2023-02-26T06:08:39;3.30;99.90
19920;DHT22;10122;50.074;19.920;2023-02-26T06:11:05;3.30;99.90
19920;DHT22;10122;50.074;19.920;2023-02-26T06:13:30;3.40;99.90
19920;DHT22;10122;50.074;19.920;2023-02-26T06:15:56;3.40;99.90
19920;DHT22;10122;50.074;19.920;2023-02-26T06:18:22;3.40;99.90
19920;DHT22;10122;50.074;19.920;2023-02-26T06:20:47;3.50;99.90
19920;DHT22;10122;50.074;19.920;2023-02-26T06:23:13;3.70;99.90
19920;DHT22;10122;50.074;19.920;2023-02-26T06:25:42;3.70;99.90
19920;DHT22;10122;50.074;19.920;2023-02-26T06:28:08;3.70;99.90
19920;DHT22;10122;50.074;19.920;2023-02-26T06:30:34;3.70;99.90
19920;DHT22;10122;50.074;19.920;2023-02-26T06:33:00;3.70;99.90
19920;DHT22;10122;50.074;19.920;2023-02-26T06:35:26;3.60;99.90
19920;DHT22;10122;50.074;19.920;2023-02-26T06:37:55;3.60;99.90
19920;DHT22;10122;50.074;19.920;2023-02-26T06:40:20;3.70;99.90
19920;DHT22;10122;50.074;19.920;2023-02-26T06:42:46;3.90;99.90
19920;DHT22;10122;50.074;19.920;2023-02-26T06:45:12;4.00;99.90
19920;DHT22;10122;50.074;19.920;2023-02-26T06:47:38;4.00;99.90
19920;DHT22;10122;50.074;19.920;2023-02-26T06:50:04;4.00;99.90
19920;DHT22;10122;50.074;19.920;2023-02-26T06:52:29;4.10;99.90
19920;DHT22;10122;50.074;19.920;2023-02-26T06:54:55;4.20;99.90
19920;DHT22;10122;50.074;19.920;2023-02-26T06:57:21;4.40;99.90
19920;DHT22;10122;50.074;19.920;2023-02-26T06:59:47;4.50;99.90
19920;DHT22;10122;50.074;19.920;2023-02-26T07:02:17;4.60;99.90
19920;DHT22;10122;50.074;19.920;2023-02-26T07:04:44;4.70;99.90
19920;DHT22;10122;50.074;19.920;2023-02-26T07:07:10;4.80;99.90
19920;DHT22;10122;50.074;19.920;2023-02-26T07:09:36;4.80;99.90
19920;DHT22;10122;50.074;19.920;2023-02-26T07:12:02;4.80;99.90
19920;DHT22;10122;50.074;19.920;2023-02-26T07:14:28;4.80;99.90
19920;DHT22;10122;50.074;19.920;2023-02-26T07:16:53;4.90;99.90
19920;DHT22;10122;50.074;19.920;2023-02-26T07:19:19;5.00;99.90
19920;DHT22;10122;50.074;19.920;2023-02-26T07:21:45;5.20;99.90
19920;DHT22;10122;50.074;19.920;2023-02-26T07:24:11;5.30;99.90
19920;DHT22;10122;50.074;19.920;2023-02-26T07:26:36;5.20;99.90
19920;DHT22;10122;50.074;19.920;2023-02-26T07:29:03;5.40;99.90
19920;DHT22;10122;50.074;19.920;2023-02-26T07:31:29;5.70;99.90
19920;DHT22;10122;50.074;19.920;2023-02-26T07:33:55;6.50;99.90
19920;DHT22;10122;50.074;19.920;2023-02-26T07:36:20;7.20;99.90
19920;DHT22;10122;50.074;19.920;2023-02-26T07:38:46;7.90;99.90
19920;DHT22;10122;50.074;19.920;2023-02-26T07:41:11;8.50;99.90
19920;DHT22;10122;50.074;19.920;2023-02-26T07:43:37;8.80;99.90
19920;DHT22;10122;50.074;19.920;2023-02-26T07:46:03;8.90;99.90
19920;DHT22;10122;50.074;19.920;2023-02-26T07:48:29;8.80;99.90
19920;DHT22;10122;50.074;19.920;2023-02-26T07:50:56;8.40;99.90
19920;DHT22;10122;50.074;19.920;2023-02-26T07:53:22;8.30;99.90
19920;DHT22;10122;50.074;19.920;2023-02-26T07:55:48;7.90;99.90
19920;DHT22;10122;50.074;19.920;2023-02-26T07:58:14;7.60;99.90
19920;DHT22;10122;50.074;19.920;2023-02-26T08:00:39;7.20;99.90
19920;DHT22;10122;50.074;19.920;2023-02-26T08:03:05;6.80;99.90
19920;DHT22;10122;50.074;19.920;2023-02-26T08:05:31;6.70;99.90
19920;DHT22;10122;50.074;19.920;2023-02-26T08:07:56;6.60;99.90
19920;DHT22;10122;50.074;19.920;2023-02-26T08:10:22;6.50;99.90
19920;DHT22;10122;50.074;19.920;2023-02-26T08:12:48;6.50;99.90
19920;DHT22;10122;50.074;19.920;2023-02-26T08:15:13;6.40;99.90
19920;DHT22;10122;50.074;19.920;2023-02-26T08:17:40;6.30;99.90
19920;DHT22;10122;50.074;19.920;2023-02-26T08:20:07;6.10;99.90
19920;DHT22;10122;50.074;19.920;2023-02-26T08:22:33;5.90;99.90
19920;DHT22;10122;50.074;19.920;2023-02-26T08:24:59;5.80;99.90
19920;DHT22;10122;50.074;19.920;2023-02-26T08:27:25;5.70;99.90
19920;DHT22;10122;50.074;19.920;2023-02-26T08:29:51;5.70;99.90
19920;DHT22;10122;50.074;19.920;2023-02-26T08:32:18;5.60;99.90
19920;DHT22;10122;50.074;19.920;2023-02-26T08:34:45;5.60;99.90
19920;DHT22;10122;50.074;19.920;2023-02-26T08:37:11;5.60;99.90
19920;DHT22;10122;50.074;19.920;2023-02-26T08:39:38;5.60;99.90
19920;DHT22;10122;50.074;19.920;2023-02-26T08:42:08;5.50;99.90
19920;DHT22;10122;50.074;19.920;2023-02-26T08:44:34;5.50;99.90
19920;DHT22;10122;50.074;19.920;2023-02-26T08:46:59;5.60;99.90
19920;DHT22;10122;50.074;19.920;2023-02-26T08:49:25;5.60;99.90
19920;DHT22;10122;50.074;19.920;2023-02-26T08:51:51;5.60;99.90
19920;DHT22;10122;50.074;19.920;2023-02-26T08:54:16;5.60;99.90
19920;DHT22;10122;50.074;19.920;2023-02-26T08:56:42;5.50;99.90
19920;DHT22;10122;50.074;19.920;2023-02-26T08:59:08;5.50;99.90
19920;DHT22;10122;50.074;19.920;2023-02-26T09:01:38;5.60;99.90
19920;DHT22;10122;50.074;19.920;2023-02-26T09:04:03;5.60;99.90
19920;DHT22;10122;50.074;19.920;2023-02-26T09:06:29;5.70;99.90
19920;DHT22;10122;50.074;19.920;2023-02-26T09:08:55;5.80;99.90
19920;DHT22;10122;50.074;19.920;2023-02-26T09:11:20;5.90;99.90
19920;DHT22;10122;50.074;19.920;2023-02-26T09:13:46;6.00;99.90
19920;DHT22;10122;50.074;19.920;2023-02-26T09:16:12;6.10;99.90
19920;DHT22;10122;50.074;19.920;2023-02-26T09:18:37;6.10;99.90
19920;DHT22;10122;50.074;19.920;2023-02-26T09:21:03;6.10;99.90
19920;DHT22;10122;50.074;19.920;2023-02-26T09:23:29;6.00;99.90
19920;DHT22;10122;50.074;19.920;2023-02-26T09:25:56;5.90;99.90
19920;DHT22;10122;50.074;19.920;2023-02-26T09:28:23;5.80;99.90
19920;DHT22;10122;50.074;19.920;2023-02-26T09:30:53;5.80;99.90
19920;DHT22;10122;50.074;19.920;2023-02-26T09:33:20;5.70;99.90
19920;DHT22;10122;50.074;19.920;2023-02-26T09:35:50;5.70;99.90
19920;DHT22;10122;50.074;19.920;2023-02-26T09:38:16;5.60;99.90
19920;DHT22;10122;50.074;19.920;2023-02-26T09:49:22;5.20;99.90
19920;DHT22;10122;50.074;19.920;2023-02-26T09:51:55;5.20;99.90
19920;DHT22;10122;50.074;19.920;2023-02-26T09:54:26;5.20;99.90
19920;DHT22;10122;50.074;19.920;2023-02-26T09:56:53;5.30;99.90
19920;DHT22;10122;50.074;19.920;2023-02-26T09:59:21;5.30;99.90
19920;DHT22;10122;50.074;19.920;2023-02-26T10:01:58;5.40;99.90
19920;DHT22;10122;50.074;19.920;2023-02-26T10:12:35;5.50;99.90
19920;DHT22;10122;50.074;19.920;2023-02-26T10:15:36;5.60;99.90
19920;DHT22;10122;50.074;19.920;2023-02-26T10:18:14;5.80;99.90
19920;DHT22;10122;50.074;19.920;2023-02-26T10:25:47;6.10;99.90
19920;DHT22;10122;50.074;19.920;2023-02-26T10:30:43;6.20;99.90
19920;DHT22;10122;50.074;19.920;2023-02-26T10:33:48;6.40;99.90
19920;DHT22;10122;50.074;19.920;2023-02-26T10:36:25;6.50;99.90
19920;DHT22;10122;50.074;19.920;2023-02-26T10:39:01;6.60;99.90
19920;DHT22;10122;50.074;19.920;2023-02-26T10:41:30;6.70;99.90
19920;DHT22;10122;50.074;19.920;2023-02-26T10:44:17;7.00;99.90
19920;DHT22;10122;50.074;19.920;2023-02-26T10:46:56;7.30;99.90
19920;DHT22;10122;50.074;19.920;2023-02-26T10:52:23;7.50;99.90
19920;DHT22;10122;50.074;19.920;2023-02-26T10:55:07;7.80;99.90
19920;DHT22;10122;50.074;19.920;2023-02-26T10:57:42;8.00;99.90
19920;DHT22;10122;50.074;19.920;2023-02-26T11:00:17;8.30;99.90
19920;DHT22;10122;50.074;19.920;2023-02-26T11:02:46;8.40;99.90
19920;DHT22;10122;50.074;19.920;2023-02-26T11:05:31;8.50;99.90
19920;DHT22;10122;50.074;19.920;2023-02-26T11:08:04;8.50;99.90
19920;DHT22;10122;50.074;19.920;2023-02-26T11:10:49;8.20;99.90
19920;DHT22;10122;50.074;19.920;2023-02-26T11:13:15;8.00;99.90
19920;DHT22;10122;50.074;19.920;2023-02-26T11:15:42;7.70;99.90
19920;DHT22;10122;50.074;19.920;2023-02-26T11:18:13;7.60;99.90
19920;DHT22;10122;50.074;19.920;2023-02-26T11:20:43;7.50;99.90
19920;DHT22;10122;50.074;19.920;2023-02-26T11:23:17;7.40;99.90
19920;DHT22;10122;50.074;19.920;2023-02-26T11:25:45;7.20;99.90
19920;DHT22;10122;50.074;19.920;2023-02-26T11:28:44;7.00;99.90
19920;DHT22;10122;50.074;19.920;2023-02-26T11:31:11;6.70;99.90
19920;DHT22;10122;50.074;19.920;2023-02-26T11:33:44;6.60;99.90
19920;DHT22;10122;50.074;19.920;2023-02-26T11:36:18;6.50;99.90
19920;DHT22;10122;50.074;19.920;2023-02-26T11:38:54;6.30;99.90
19920;DHT22;10122;50.074;19.920;2023-02-26T11:41:22;6.10;99.90
19920;DHT22;10122;50.074;19.920;2023-02-26T11:44:36;5.90;99.90
19920;DHT22;10122;50.074;19.920;2023-02-26T11:46:54;5.70;99.90
19920;DHT22;10122;50.074;19.920;2023-02-26T11:49:23;5.60;99.90
19920;DHT22;10122;50.074;19.920;2023-02-26T11:54:34;5.60;99.90
19920;DHT22;10122;50.074;19.920;2023-02-26T11:57:05;5.50;99.90
19920;DHT22;10122;50.074;19.920;2023-02-26T11:59:33;5.50;99.90
19920;DHT22;10122;50.074;19.920;2023-02-26T12:02:11;5.60;99.90
19920;DHT22;10122;50.074;19.920;2023-02-26T12:04:39;5.70;99.90
19920;DHT22;10122;50.074;19.920;2023-02-26T12:07:13;5.70;99.90
19920;DHT22;10122;50.074;19.920;2023-02-26T12:09:39;5.70;99.90
19920;DHT22;10122;50.074;19.920;2023-02-26T12:15:20;5.90;99.90
19920;DHT22;10122;50.074;19.920;2023-02-26T12:17:53;5.80;99.90
19920;DHT22;10122;50.074;19.920;2023-02-26T12:20:45;5.90;99.90
19920;DHT22;10122;50.074;19.920;2023-02-26T12:31:18;6.20;99.90
19920;DHT22;10122;50.074;19.920;2023-02-26T12:42:27;6.30;99.90
19920;DHT22;10122;50.074;19.920;2023-02-26T12:47:34;6.30;99.90
19920;DHT22;10122;50.074;19.920;2023-02-26T12:52:53;6.30;99.90
19920;DHT22;10122;50.074;19.920;2023-02-26T13:01:10;6.10;99.90
19920;DHT22;10122;50.074;19.920;2023-02-26T13:09:16;6.10;99.90
19920;DHT22;10122;50.074;19.920;2023-02-26T13:14:40;5.90;99.90
19920;DHT22;10122;50.074;19.920;2023-02-26T13:20:00;5.70;99.90
19920;DHT22;10122;50.074;19.920;2023-02-26T13:22:40;5.60;99.90
19920;DHT22;10122;50.074;19.920;2023-02-26T13:25:37;5.30;99.90
19920;DHT22;10122;50.074;19.920;2023-02-26T13:30:48;5.20;99.90
19920;DHT22;10122;50.074;19.920;2023-02-26T13:33:18;5.20;99.90
19920;DHT22;10122;50.074;19.920;2023-02-26T13:35:46;5.00;99.90
19920;DHT22;10122;50.074;19.920;2023-02-26T13:52:27;5.00;99.90
19920;DHT22;10122;50.074;19.920;2023-02-26T13:54:53;5.10;99.90
19920;DHT22;10122;50.074;19.920;2023-02-26T14:03:10;5.50;99.90
19920;DHT22;10122;50.074;19.920;2023-02-26T14:09:01;5.80;99.90
19920;DHT22;10122;50.074;19.920;2023-02-26T14:11:26;5.90;99.90
19920;DHT22;10122;50.074;19.920;2023-02-26T14:14:15;5.80;99.90
19920;DHT22;10122;50.074;19.920;2023-02-26T14:16:43;5.60;99.90
19920;DHT22;10122;50.074;19.920;2023-02-26T14:21:48;5.60;99.90
19920;DHT22;10122;50.074;19.920;2023-02-26T14:27:22;5.40;99.90
19920;DHT22;10122;50.074;19.920;2023-02-26T14:32:45;4.90;99.90
19920;DHT22;10122;50.074;19.920;2023-02-26T14:35:16;5.10;99.90
19920;DHT22;10122;50.074;19.920;2023-02-26T14:37:47;5.10;99.90
19920;DHT22;10122;50.074;19.920;2023-02-26T14:40:19;5.30;99.90
19920;DHT22;10122;50.074;19.920;2023-02-26T14:42:50;5.30;99.90
19920;DHT22;10122;50.074;19.920;2023-02-26T14:45:37;5.30;99.90
19920;DHT22;10122;50.074;19.920;2023-02-26T14:48:05;5.30;99.90
19920;DHT22;10122;50.074;19.920;2023-02-26T14:53:59;5.50;99.90
19920;DHT22;10122;50.074;19.920;2023-02-26T15:01:56;5.60;99.90
19920;DHT22;10122;50.074;19.920;2023-02-26T15:18:37;5.00;99.90
19920;DHT22;10122;50.074;19.920;2023-02-26T15:26:38;4.70;99.90
19920;DHT22;10122;50.074;19.920;2023-02-26T15:29:05;4.60;99.90
19920;DHT22;10122;50.074;19.920;2023-02-26T15:31:39;4.50;99.90
19920;DHT22;10122;50.074;19.920;2023-02-26T15:34:05;4.40;99.90
19920;DHT22;10122;50.074;19.920;2023-02-26T15:36:31;4.40;99.90
19920;DHT22;10122;50.074;19.920;2023-02-26T15:38:59;4.30;99.90
19920;DHT22;10122;50.074;19.920;2023-02-26T15:41:27;4.10;99.90
19920;DHT22;10122;50.074;19.920;2023-02-26T15:44:00;4.10;99.90
19920;DHT22;10122;50.074;19.920;2023-02-26T15:46:30;4.20;99.90
19920;DHT22;10122;50.074;19.920;2023-02-26T15:49:04;4.20;99.90
19920;DHT22;10122;50.074;19.920;2023-02-26T15:51:32;4.10;99.90
19920;DHT22;10122;50.074;19.920;2023-02-26T15:53:58;4.10;99.90
19920;DHT22;10122;50.074;19.920;2023-02-26T15:56:33;4.10;99.90
19920;DHT22;10122;50.074;19.920;2023-02-26T15:59:12;4.10;99.90
19920;DHT22;10122;50.074;19.920;2023-02-26T16:01:41;4.00;99.90
19920;DHT22;10122;50.074;19.920;2023-02-26T16:04:13;3.80;99.90
19920;DHT22;10122;50.074;19.920;2023-02-26T16:06:54;3.70;99.90
19920;DHT22;10122;50.074;19.920;2023-02-26T16:11:53;3.50;99.90
19920;DHT22;10122;50.074;19.920;2023-02-26T16:14:40;3.50;99.90
19920;DHT22;10122;50.074;19.920;2023-02-26T16:17:23;3.60;99.90
19920;DHT22;10122;50.074;19.920;2023-02-26T16:19:50;3.60;99.90
19920;DHT22;10122;50.074;19.920;2023-02-26T16:22:32;3.60;99.90
19920;DHT22;10122;50.074;19.920;2023-02-26T16:27:28;3.60;99.90
19920;DHT22;10122;50.074;19.920;2023-02-26T16:29:57;3.90;99.90
19920;DHT22;10122;50.074;19.920;2023-02-26T16:32:27;3.90;99.90
19920;DHT22;10122;50.074;19.920;2023-02-26T16:34:55;3.90;99.90
19920;DHT22;10122;50.074;19.920;2023-02-26T16:37:31;3.90;99.90
19920;DHT22;10122;50.074;19.920;2023-02-26T16:40:27;3.90;99.90
19920;DHT22;10122;50.074;19.920;2023-02-26T16:43:03;3.80;99.90
19920;DHT22;10122;50.074;19.920;2023-02-26T16:48:03;3.50;99.90
19920;DHT22;10122;50.074;19.920;2023-02-26T16:50:33;3.40;99.90
19920;DHT22;10122;50.074;19.920;2023-02-26T16:53:05;3.50;99.90
19920;DHT22;10122;50.074;19.920;2023-02-26T16:55:34;3.60;99.90
19920;DHT22;10122;50.074;19.920;2023-02-26T16:58:02;3.60;99.90
19920;DHT22;10122;50.074;19.920;2023-02-26T17:00:31;3.70;99.90
19920;DHT22;10122;50.074;19.920;2023-02-26T17:03:27;3.60;99.90
19920;DHT22;10122;50.074;19.920;2023-02-26T17:05:59;3.60;99.90
19920;DHT22;10122;50.074;19.920;2023-02-26T17:08:33;3.50;99.90
19920;DHT22;10122;50.074;19.920;2023-02-26T17:11:05;3.40;99.90
19920;DHT22;10122;50.074;19.920;2023-02-26T17:13:33;3.40;99.90
19920;DHT22;10122;50.074;19.920;2023-02-26T17:16:11;3.30;99.90
19920;DHT22;10122;50.074;19.920;2023-02-26T17:18:36;3.40;99.90
19920;DHT22;10122;50.074;19.920;2023-02-26T17:21:03;3.30;99.90
19920;DHT22;10122;50.074;19.920;2023-02-26T17:23:36;3.20;99.90
19920;DHT22;10122;50.074;19.920;2023-02-26T17:26:03;3.10;99.90
19920;DHT22;10122;50.074;19.920;2023-02-26T17:28:31;3.10;99.90
19920;DHT22;10122;50.074;19.920;2023-02-26T17:31:00;3.00;99.90
19920;DHT22;10122;50.074;19.920;2023-02-26T17:33:26;3.10;99.90
19920;DHT22;10122;50.074;19.920;2023-02-26T17:35:55;3.20;99.90
19920;DHT22;10122;50.074;19.920;2023-02-26T17:38:23;3.30;99.90
19920;DHT22;10122;50.074;19.920;2023-02-26T17:40:49;3.30;99.90
19920;DHT22;10122;50.074;19.920;2023-02-26T17:43:18;3.30;99.90
19920;DHT22;10122;50.074;19.920;2023-02-26T17:45:44;3.30;99.90
19920;DHT22;10122;50.074;19.920;2023-02-26T17:48:12;3.20;99.90
19920;DHT22;10122;50.074;19.920;2023-02-26T17:53:07;3.10;99.90
19920;DHT22;10122;50.074;19.920;2023-02-26T17:55:34;2.80;99.90
19920;DHT22;10122;50.074;19.920;2023-02-26T17:58:02;2.70;99.90
19920;DHT22;10122;50.074;19.920;2023-02-26T18:00:28;2.70;99.90
19920;DHT22;10122;50.074;19.920;2023-02-26T18:02:54;2.70;99.90
19920;DHT22;10122;50.074;19.920;2023-02-26T18:05:19;2.70;99.90
19920;DHT22;10122;50.074;19.920;2023-02-26T18:07:47;2.60;99.90
19920;DHT22;10122;50.074;19.920;2023-02-26T18:10:19;2.60;99.90
19920;DHT22;10122;50.074;19.920;2023-02-26T18:12:45;2.60;99.90
19920;DHT22;10122;50.074;19.920;2023-02-26T18:15:12;2.70;99.90
19920;DHT22;10122;50.074;19.920;2023-02-26T18:17:38;2.80;99.90
19920;DHT22;10122;50.074;19.920;2023-02-26T18:20:04;2.70;99.90
19920;DHT22;10122;50.074;19.920;2023-02-26T18:22:33;2.60;99.90
19920;DHT22;10122;50.074;19.920;2023-02-26T18:24:59;2.60;99.90
19920;DHT22;10122;50.074;19.920;2023-02-26T18:27:26;2.50;99.90
19920;DHT22;10122;50.074;19.920;2023-02-26T18:29:52;2.40;99.90
19920;DHT22;10122;50.074;19.920;2023-02-26T18:32:21;2.40;99.90
19920;DHT22;10122;50.074;19.920;2023-02-26T18:34:48;2.60;99.90
19920;DHT22;10122;50.074;19.920;2023-02-26T18:37:17;2.70;99.90
19920;DHT22;10122;50.074;19.920;2023-02-26T18:39:43;2.80;99.90
19920;DHT22;10122;50.074;19.920;2023-02-26T18:42:21;2.90;99.90
19920;DHT22;10122;50.074;19.920;2023-02-26T18:44:48;2.90;99.90
19920;DHT22;10122;50.074;19.920;2023-02-26T18:47:14;2.90;99.90
19920;DHT22;10122;50.074;19.920;2023-02-26T18:49:41;2.90;99.90
19920;DHT22;10122;50.074;19.920;2023-02-26T18:52:07;2.80;99.90
19920;DHT22;10122;50.074;19.920;2023-02-26T18:54:32;2.80;99.90